Time;durP1;ratioP1;P1;durP2;ratioP2;P2;SDS_P1;SDS_P2;PMS_P1;PMS_P2;Temp;Humidity;BMP_temperature;BMP_pressure;BME280_temperature;BME280_humidity;BME280_pressure;Samples;Min_cycle;Max_cycle;Signal;HPM_P1;HPM_P2
2021/11/11 00:02:17;;;;;;;19.25;14.05;;;;;;;;;;4997038;28;20417;-78
2021/11/11 00:04:44;;;;;;;22.27;13.43;;;;;;;;;;4997200;28;20613;-75
2021/11/11 00:07:11;;;;;;;22.65;13.80;;;;;;;;;;4997226;28;20285;-76
2021/11/11 00:09:37;;;;;;;24.30;13.88;;;;;;;;;;4996624;28;20219;-79
2021/11/11 00:12:03;;;;;;;23.98;12.88;;;;;;;;;;4996897;28;20210;-77
2021/11/11 00:14:29;;;;;;;19.27;12.68;;;;;;;;;;4995351;28;20181;-77
2021/11/11 00:16:55;;;;;;;19.83;12.48;;;;;;;;;;4995647;28;20177;-78
2021/11/11 00:19:21;;;;;;;21.20;13.45;;;;;;;;;;4996435;28;20179;-78
2021/11/11 00:21:48;;;;;;;22.27;13.32;;;;;;;;;;4996667;28;20673;-77
2021/11/11 00:24:15;;;;;;;22.05;13.55;;;;;;;;;;4996674;28;20225;-78
2021/11/11 00:26:41;;;;;;;18.88;12.63;;;;;;;;;;4996377;28;20738;-77
2021/11/11 00:29:07;;;;;;;25.33;13.68;;;;;;;;;;4996465;28;20177;-76
2021/11/11 00:31:36;;;;;;;21.07;12.97;;;;;;;;;;4995098;28;20288;-77
2021/11/11 00:34:03;;;;;;;25.25;14.48;;;;;;;;;;4995709;28;20494;-78
2021/11/11 00:36:29;;;;;;;23.65;13.40;;;;;;;;;;4996653;28;20179;-76
2021/11/11 00:38:55;;;;;;;23.17;14.63;;;;;;;;;;4996270;28;20172;-77
2021/11/11 00:41:21;;;;;;;20.08;12.48;;;;;;;;;;4996088;28;20651;-75
2021/11/11 00:43:47;;;;;;;24.95;14.60;;;;;;;;;;4996415;28;20184;-76
2021/11/11 00:46:13;;;;;;;27.50;14.23;;;;;;;;;;4996327;28;20176;-80
2021/11/11 00:48:39;;;;;;;29.05;14.07;;;;;;;;;;4995144;28;20214;-75
2021/11/11 00:51:05;;;;;;;23.23;12.95;;;;;;;;;;4995754;28;20680;-76
2021/11/11 00:53:31;;;;;;;20.42;14.18;;;;;;;;;;4996220;28;20187;-78
2021/11/11 00:55:57;;;;;;;24.95;14.00;;;;;;;;;;4996187;28;20172;-76
2021/11/11 00:58:23;;;;;;;18.85;13.07;;;;;;;;;;4996203;28;20179;-77
2021/11/11 01:00:49;;;;;;;25.55;14.07;;;;;;;;;;4994333;28;20251;-78
2021/11/11 01:03:18;;;;;;;23.08;13.73;;;;;;;;;;4995082;28;20257;-78
2021/11/11 01:05:44;;;;;;;22.75;12.35;;;;;;;;;;4996171;28;20190;-74
2021/11/11 01:08:10;;;;;;;16.83;11.30;;;;;;;;;;4995905;28;20600;-76
2021/11/11 01:10:36;;;;;;;21.50;13.13;;;;;;;;;;4995571;28;20194;-75
2021/11/11 01:13:02;;;;;;;18.30;11.68;;;;;;;;;;4994657;28;20233;-76
2021/11/11 01:15:30;;;;;;;24.80;12.32;;;;;;;;;;4995880;28;20592;-76
2021/11/11 01:17:57;;;;;;;20.67;13.80;;;;;;;;;;4995754;28;20275;-78
2021/11/11 01:20:23;;;;;;;19.27;12.77;;;;;;;;;;4993946;28;20213;-76
2021/11/11 01:22:50;;;;;;;23.27;11.38;;;;;;;;;;4995619;28;20179;-75
2021/11/11 01:25:19;;;;;;;18.30;12.75;;;;;;;;;;4995526;28;20176;-78
2021/11/11 01:27:45;;;;;;;21.23;13.48;;;;;;;;;;4995520;28;20203;-77
2021/11/11 01:30:11;;;;;;;21.15;11.93;;;;;;;;;;4995164;28;20191;-76
2021/11/11 01:32:37;;;;;;;22.15;12.68;;;;;;;;;;4995373;28;20168;-78
2021/11/11 01:35:04;;;;;;;21.67;12.85;;;;;;;;;;4995373;28;20204;-78
2021/11/11 01:37:31;;;;;;;20.58;11.15;;;;;;;;;;4995283;28;20663;-77
2021/11/11 01:39:57;;;;;;;18.10;12.70;;;;;;;;;;4995003;28;20198;-78
2021/11/11 01:42:23;;;;;;;16.17;11.70;;;;;;;;;;4995323;28;20190;-76
2021/11/11 01:44:50;;;;;;;25.65;12.40;;;;;;;;;;4995492;28;20179;-76
2021/11/11 01:47:16;;;;;;;19.77;12.52;;;;;;;;;;4995290;28;20671;-76
2021/11/11 01:49:42;;;;;;;18.30;11.82;;;;;;;;;;4994747;28;20196;-78
2021/11/11 01:52:09;;;;;;;21.92;10.75;;;;;;;;;;4995127;28;20255;-77
2021/11/11 01:54:35;;;;;;;19.45;12.18;;;;;;;;;;4995218;28;20600;-79
2021/11/11 01:57:01;;;;;;;22.10;12.85;;;;;;;;;;4994977;28;20211;-76
2021/11/11 01:59:28;;;;;;;21.27;14.25;;;;;;;;;;4994726;28;20202;-74
2021/11/11 02:01:55;;;;;;;20.50;11.45;;;;;;;;;;4994921;28;20640;-78
2021/11/11 02:04:21;;;;;;;22.08;12.45;;;;;;;;;;4993606;28;20202;-77
2021/11/11 02:06:47;;;;;;;22.85;11.60;;;;;;;;;;4994694;28;20190;-76
2021/11/11 02:09:14;;;;;;;22.85;13.02;;;;;;;;;;4993345;28;20517;-78
2021/11/11 02:11:40;;;;;;;23.98;12.52;;;;;;;;;;4994092;28;20275;-76
2021/11/11 02:14:07;;;;;;;22.08;13.40;;;;;;;;;;4994870;28;20177;-75
2021/11/11 02:16:35;;;;;;;17.00;11.27;;;;;;;;;;4994601;28;20261;-77
2021/11/11 02:19:01;;;;;;;19.30;12.23;;;;;;;;;;4993344;28;20230;-77
2021/11/11 02:21:27;;;;;;;19.90;12.80;;;;;;;;;;4993940;28;20599;-75
2021/11/11 02:23:54;;;;;;;25.00;13.32;;;;;;;;;;4994463;28;20498;-78
2021/11/11 02:26:20;;;;;;;23.02;12.77;;;;;;;;;;4994681;28;20262;-78
2021/11/11 02:28:46;;;;;;;27.88;13.27;;;;;;;;;;4994363;28;20207;-77
2021/11/11 02:31:12;;;;;;;23.95;13.00;;;;;;;;;;4993998;28;20571;-76
2021/11/11 02:33:38;;;;;;;22.67;12.02;;;;;;;;;;4994099;28;20186;-75
2021/11/11 02:36:05;;;;;;;23.90;13.90;;;;;;;;;;4994333;28;20603;-75
2021/11/11 02:38:31;;;;;;;19.42;12.75;;;;;;;;;;4994299;28;20178;-76
2021/11/11 02:40:57;;;;;;;23.08;14.05;;;;;;;;;;4992817;28;20206;-76
2021/11/11 02:43:25;;;;;;;26.33;13.75;;;;;;;;;;4994354;28;20173;-76
2021/11/11 02:45:52;;;;;;;19.58;12.88;;;;;;;;;;4994097;28;20168;-77
2021/11/11 02:48:19;;;;;;;20.55;11.65;;;;;;;;;;4994183;28;20200;-78
2021/11/11 02:50:46;;;;;;;16.40;11.35;;;;;;;;;;4993891;28;20203;-76
2021/11/11 02:53:13;;;;;;;19.23;11.63;;;;;;;;;;4994218;28;20176;-77
2021/11/11 02:55:39;;;;;;;18.63;11.90;;;;;;;;;;4993940;28;20179;-78
2021/11/11 02:58:05;;;;;;;19.85;13.93;;;;;;;;;;4992828;28;20218;-76
2021/11/11 03:00:31;;;;;;;19.20;13.77;;;;;;;;;;4993798;28;20199;-74
2021/11/11 03:02:58;;;;;;;16.60;11.07;;;;;;;;;;4993982;28;20171;-79
2021/11/11 03:05:26;;;;;;;19.75;12.55;;;;;;;;;;4994065;28;20226;-78
2021/11/11 03:07:52;;;;;;;19.15;11.82;;;;;;;;;;4993784;28;20205;-79
2021/11/11 03:10:20;;;;;;;20.75;12.43;;;;;;;;;;4993478;28;20199;-75
2021/11/11 03:12:47;;;;;;;19.35;11.88;;;;;;;;;;4992669;28;20610;-78
2021/11/11 03:15:13;;;;;;;18.80;11.55;;;;;;;;;;4993816;28;20262;-75
2021/11/11 03:17:40;;;;;;;21.98;11.57;;;;;;;;;;4993751;28;20183;-78
2021/11/11 03:20:06;;;;;;;23.30;11.30;;;;;;;;;;4993235;28;20581;-77
2021/11/11 03:22:32;;;;;;;20.40;11.55;;;;;;;;;;4995232;28;20235;-76
2021/11/11 03:24:59;;;;;;;17.88;12.70;;;;;;;;;;4997843;28;20219;-78
2021/11/11 03:27:25;;;;;;;20.30;11.82;;;;;;;;;;4997653;28;20191;-77
2021/11/11 03:29:52;;;;;;;22.77;12.35;;;;;;;;;;4997222;28;20191;-77
2021/11/11 03:32:18;;;;;;;20.10;12.02;;;;;;;;;;4997552;28;20237;-76
2021/11/11 03:34:45;;;;;;;18.77;11.10;;;;;;;;;;4997584;28;20167;-75
2021/11/11 03:37:11;;;;;;;20.00;12.95;;;;;;;;;;4997529;28;20257;-78
2021/11/11 03:39:37;;;;;;;18.55;12.32;;;;;;;;;;4997132;28;20656;-78
2021/11/11 03:42:04;;;;;;;15.52;10.90;;;;;;;;;;4996251;28;20182;-78
2021/11/11 03:44:30;;;;;;;17.60;11.75;;;;;;;;;;4997273;28;20184;-77
2021/11/11 03:46:57;;;;;;;21.50;12.30;;;;;;;;;;4997363;28;20196;-76
2021/11/11 03:49:24;;;;;;;18.23;12.13;;;;;;;;;;4996915;28;20226;-79
2021/11/11 03:51:50;;;;;;;16.45;11.50;;;;;;;;;;4997533;28;20182;-76
2021/11/11 03:54:17;;;;;;;19.25;11.48;;;;;;;;;;4997103;28;20208;-76
2021/11/11 03:56:43;;;;;;;19.48;13.32;;;;;;;;;;4997321;28;20263;-78
2021/11/11 03:59:10;;;;;;;21.75;11.82;;;;;;;;;;4997094;28;20671;-77
2021/11/11 04:01:37;;;;;;;24.05;11.57;;;;;;;;;;4996907;28;20192;-77
2021/11/11 04:04:04;;;;;;;24.27;13.70;;;;;;;;;;4997161;28;20179;-78
2021/11/11 04:06:31;;;;;;;19.77;12.43;;;;;;;;;;4997066;28;20636;-78
2021/11/11 04:08:59;;;;;;;18.92;12.20;;;;;;;;;;4997163;28;20287;-79
2021/11/11 04:11:25;;;;;;;21.50;12.88;;;;;;;;;;4996655;28;20535;-74
2021/11/11 04:13:51;;;;;;;18.63;11.90;;;;;;;;;;4997009;28;20234;-76
2021/11/11 04:16:17;;;;;;;18.90;12.70;;;;;;;;;;4997036;28;20180;-78
2021/11/11 04:18:44;;;;;;;19.58;12.90;;;;;;;;;;4996903;28;20188;-80
2021/11/11 04:21:10;;;;;;;20.95;12.85;;;;;;;;;;4995198;28;20221;-77
2021/11/11 04:23:36;;;;;;;19.75;12.40;;;;;;;;;;4996534;28;20214;-79
2021/11/11 04:28:42;;;;;;;22.50;12.75;;;;;;;;;;4996924;28;20245;-79
2021/11/11 04:31:15;;;;;;;22.27;12.77;;;;;;;;;;4996661;28;20192;-77
2021/11/11 04:33:43;;;;;;;17.48;11.45;;;;;;;;;;4996291;28;20270;-78
2021/11/11 04:36:38;;;;;;;20.05;11.80;;;;;;;;;;4996600;28;20175;-76
2021/11/11 05:03:25;;;;;;;18.65;12.13;;;;;;;;;;4996162;28;20553;-78
2021/11/11 05:05:53;;;;;;;16.52;11.13;;;;;;;;;;4996140;28;20180;-77
2021/11/11 05:08:19;;;;;;;19.75;12.13;;;;;;;;;;4995813;28;20215;-78
2021/11/11 05:10:49;;;;;;;19.63;11.75;;;;;;;;;;4995574;28;20206;-75
2021/11/11 05:13:15;;;;;;;17.48;11.90;;;;;;;;;;4996127;28;20168;-77
2021/11/11 05:15:41;;;;;;;17.05;11.38;;;;;;;;;;4995826;28;20190;-76
2021/11/11 05:18:07;;;;;;;13.90;10.90;;;;;;;;;;4995818;28;20179;-78
2021/11/11 05:20:33;;;;;;;22.95;12.70;;;;;;;;;;4995208;28;20226;-78
2021/11/11 05:23:00;;;;;;;17.10;12.02;;;;;;;;;;4994298;28;20258;-76
2021/11/11 05:25:26;;;;;;;21.40;12.30;;;;;;;;;;4995496;28;20180;-77
2021/11/11 05:27:52;;;;;;;18.75;11.70;;;;;;;;;;4994207;28;20208;-78
2021/11/11 05:30:19;;;;;;;22.05;13.00;;;;;;;;;;4993764;28;20554;-77
2021/11/11 05:32:45;;;;;;;20.85;11.60;;;;;;;;;;4995308;28;20179;-78
2021/11/11 05:35:12;;;;;;;27.75;12.90;;;;;;;;;;4995314;28;20206;-79
2021/11/11 05:37:38;;;;;;;18.85;11.85;;;;;;;;;;4995244;28;20179;-79
2021/11/11 05:40:05;;;;;;;17.35;11.48;;;;;;;;;;4994916;28;20196;-76
2021/11/11 05:42:31;;;;;;;21.13;12.07;;;;;;;;;;4995314;28;20174;-77
2021/11/11 05:44:57;;;;;;;21.08;11.73;;;;;;;;;;4994828;28;20175;-79
2021/11/11 05:47:23;;;;;;;21.63;12.50;;;;;;;;;;4994264;28;20676;-77
2021/11/11 05:49:49;;;;;;;15.70;11.00;;;;;;;;;;4994830;28;20191;-78
2021/11/11 05:52:15;;;;;;;17.60;11.33;;;;;;;;;;4993906;28;20195;-77
2021/11/11 05:54:42;;;;;;;29.10;14.02;;;;;;;;;;4995185;28;20415;-78
2021/11/11 05:57:09;;;;;;;31.15;15.98;;;;;;;;;;4994950;28;20194;-78
2021/11/11 05:59:39;;;;;;;22.08;12.68;;;;;;;;;;4994534;28;20629;-79
2021/11/11 06:02:11;;;;;;;19.98;12.95;;;;;;;;;;4993738;28;20195;-78
2021/11/11 06:04:37;;;;;;;26.33;14.40;;;;;;;;;;4995067;28;20651;-78
2021/11/11 06:07:03;;;;;;;29.52;16.05;;;;;;;;;;4993519;28;20302;-75
2021/11/11 06:09:29;;;;;;;43.08;22.20;;;;;;;;;;4994389;28;20254;-78
2021/11/11 06:11:55;;;;;;;42.80;22.90;;;;;;;;;;4994793;28;20660;-78
2021/11/11 06:14:21;;;;;;;107.65;37.72;;;;;;;;;;4994546;28;20495;-75
2021/11/11 06:16:47;;;;;;;91.40;37.63;;;;;;;;;;4994621;28;20190;-77
2021/11/11 06:19:13;;;;;;;64.05;28.55;;;;;;;;;;4994358;28;20498;-77
2021/11/11 06:21:40;;;;;;;58.30;27.13;;;;;;;;;;4993272;28;20211;-79
2021/11/11 06:24:06;;;;;;;79.85;31.38;;;;;;;;;;4994698;28;20176;-77
2021/11/11 06:26:33;;;;;;;75.18;30.02;;;;;;;;;;4994362;28;20255;-76
2021/11/11 06:28:59;;;;;;;71.40;23.45;;;;;;;;;;4992928;28;20302;-74
2021/11/11 06:31:25;;;;;;;29.00;14.55;;;;;;;;;;4993897;28;20203;-76
2021/11/11 06:33:51;;;;;;;21.08;12.80;;;;;;;;;;4994272;28;20647;-77
2021/11/11 06:36:17;;;;;;;20.83;12.98;;;;;;;;;;4994354;28;20195;-78
2021/11/11 06:38:43;;;;;;;38.42;17.85;;;;;;;;;;4994201;28;20183;-78
2021/11/11 06:41:09;;;;;;;28.25;17.15;;;;;;;;;;4992551;28;20567;-75
2021/11/11 06:43:36;;;;;;;24.85;14.80;;;;;;;;;;4992955;28;20188;-75
2021/11/11 06:46:03;;;;;;;20.52;12.35;;;;;;;;;;4992926;28;20194;-78
2021/11/11 06:48:29;;;;;;;21.75;11.18;;;;;;;;;;4994069;28;20212;-77
2021/11/11 06:50:58;;;;;;;25.25;13.18;;;;;;;;;;4993747;28;20270;-77
2021/11/11 06:53:24;;;;;;;25.50;13.75;;;;;;;;;;4992780;28;20173;-77
2021/11/11 06:55:50;;;;;;;42.38;17.20;;;;;;;;;;4992435;28;20194;-78
2021/11/11 06:58:20;;;;;;;41.85;18.67;;;;;;;;;;4993490;28;20180;-77
2021/11/11 07:00:47;;;;;;;70.25;27.33;;;;;;;;;;4993784;28;20186;-77
2021/11/11 07:03:13;;;;;;;45.13;18.83;;;;;;;;;;4994044;28;20188;-76
2021/11/11 07:05:39;;;;;;;46.22;20.20;;;;;;;;;;4993792;28;20361;-74
2021/11/11 07:08:09;;;;;;;44.58;19.13;;;;;;;;;;4993653;28;20738;-76
2021/11/11 07:10:35;;;;;;;58.75;24.67;;;;;;;;;;4993666;28;20230;-74
2021/11/11 07:13:01;;;;;;;46.45;21.15;;;;;;;;;;4993778;28;20190;-75
2021/11/11 07:15:27;;;;;;;27.90;14.48;;;;;;;;;;4992407;28;20183;-79
2021/11/11 07:17:53;;;;;;;25.48;14.52;;;;;;;;;;4993505;28;20179;-78
2021/11/11 07:20:20;;;;;;;27.20;14.93;;;;;;;;;;4993151;28;20226;-76
2021/11/11 07:22:47;;;;;;;28.83;15.10;;;;;;;;;;4993730;28;20186;-79
2021/11/11 07:25:14;;;;;;;23.23;13.43;;;;;;;;;;4993723;28;20608;-75
2021/11/11 07:27:40;;;;;;;24.38;12.65;;;;;;;;;;4993511;28;20210;-75
2021/11/11 07:30:08;;;;;;;26.30;13.02;;;;;;;;;;4992063;28;20192;-77
2021/11/11 07:32:34;;;;;;;27.58;14.93;;;;;;;;;;4993643;28;20168;-78
2021/11/11 07:35:00;;;;;;;26.02;14.35;;;;;;;;;;4993696;28;20259;-77
2021/11/11 07:37:26;;;;;;;23.58;13.13;;;;;;;;;;4993597;28;20266;-77
2021/11/11 07:39:53;;;;;;;24.15;14.68;;;;;;;;;;4992940;28;20195;-75
2021/11/11 07:42:22;;;;;;;21.45;13.63;;;;;;;;;;4992406;28;20183;-77
2021/11/11 07:44:51;;;;;;;24.38;12.98;;;;;;;;;;4993712;28;20221;-77
2021/11/11 07:47:25;;;;;;;28.48;14.02;;;;;;;;;;4993530;28;20206;-78
2021/11/11 07:49:51;;;;;;;21.52;13.40;;;;;;;;;;4993092;28;20202;-78
2021/11/11 07:52:17;;;;;;;26.75;13.50;;;;;;;;;;4993312;28;20556;-76
2021/11/11 07:54:43;;;;;;;25.70;13.52;;;;;;;;;;4993413;28;20177;-76
2021/11/11 07:57:09;;;;;;;23.67;13.38;;;;;;;;;;4993546;28;20188;-79
2021/11/11 07:59:39;;;;;;;44.78;22.13;;;;;;;;;;4992986;28;20236;-77
2021/11/11 08:02:06;;;;;;;30.48;17.17;;;;;;;;;;4993514;28;20189;-78
2021/11/11 08:04:32;;;;;;;30.17;17.15;;;;;;;;;;4993307;28;20182;-76
2021/11/11 08:06:58;;;;;;;26.00;15.10;;;;;;;;;;4993242;28;20180;-76
2021/11/11 08:09:24;;;;;;;43.58;19.70;;;;;;;;;;4994121;28;20646;-77
2021/11/11 08:11:50;;;;;;;34.38;18.77;;;;;;;;;;4995878;28;20276;-78
2021/11/11 08:14:16;;;;;;;38.42;16.80;;;;;;;;;;4995772;28;20234;-75
2021/11/11 08:16:42;;;;;;;36.42;17.95;;;;;;;;;;4996890;28;20164;-78
2021/11/11 08:19:09;;;;;;;33.10;17.60;;;;;;;;;;4996842;28;20173;-77
2021/11/11 08:21:35;;;;;;;44.97;16.83;;;;;;;;;;4996451;28;20223;-77
2021/11/11 08:24:04;;;;;;;42.47;18.02;;;;;;;;;;4996918;28;20537;-76
2021/11/11 08:26:30;;;;;;;34.42;17.38;;;;;;;;;;4996517;28;20205;-78
2021/11/11 08:28:56;;;;;;;31.90;17.40;;;;;;;;;;4996693;28;20248;-75
2021/11/11 08:31:22;;;;;;;27.23;16.30;;;;;;;;;;4995197;28;20198;-75
2021/11/11 08:33:48;;;;;;;31.60;18.15;;;;;;;;;;4996678;28;20189;-76
2021/11/11 08:36:14;;;;;;;33.95;16.85;;;;;;;;;;4996385;28;20182;-78
2021/11/11 08:38:40;;;;;;;23.83;15.10;;;;;;;;;;4996368;28;20183;-77
2021/11/11 08:41:06;;;;;;;30.33;16.75;;;;;;;;;;4994796;28;20244;-76
2021/11/11 08:43:32;;;;;;;26.63;16.27;;;;;;;;;;4995209;28;20183;-77
2021/11/11 08:45:58;;;;;;;28.48;16.42;;;;;;;;;;4996323;28;20192;-77
2021/11/11 08:48:24;;;;;;;27.42;17.70;;;;;;;;;;4996173;28;20224;-78
2021/11/11 08:50:50;;;;;;;29.30;16.77;;;;;;;;;;4994814;28;20900;-75
2021/11/11 08:53:17;;;;;;;35.47;18.27;;;;;;;;;;4996364;28;20175;-75
2021/11/11 08:55:43;;;;;;;27.08;17.42;;;;;;;;;;4996480;28;20327;-80
2021/11/11 08:58:12;;;;;;;29.55;16.33;;;;;;;;;;4996419;28;20183;-79
2021/11/11 09:00:41;;;;;;;29.10;17.35;;;;;;;;;;4995707;28;20210;-79
2021/11/11 09:03:07;;;;;;;30.33;17.48;;;;;;;;;;4996158;28;20180;-76
2021/11/11 09:05:34;;;;;;;27.25;16.92;;;;;;;;;;4996162;28;20259;-79
2021/11/11 09:08:01;;;;;;;29.08;16.23;;;;;;;;;;4996037;28;20211;-82
2021/11/11 09:10:27;;;;;;;26.80;16.02;;;;;;;;;;4995512;28;20190;-79
2021/11/11 09:12:53;;;;;;;28.13;16.50;;;;;;;;;;4995885;28;20166;-78
2021/11/11 09:15:22;;;;;;;27.88;16.70;;;;;;;;;;4996104;28;20596;-78
2021/11/11 09:17:48;;;;;;;30.52;19.05;;;;;;;;;;4995886;28;20175;-78
2021/11/11 09:20:15;;;;;;;29.55;19.40;;;;;;;;;;4995219;28;20218;-78
2021/11/11 09:22:41;;;;;;;32.35;19.55;;;;;;;;;;4995594;28;20194;-79
2021/11/11 09:25:08;;;;;;;28.83;18.00;;;;;;;;;;4994571;28;20188;-79
2021/11/11 09:27:35;;;;;;;37.90;18.58;;;;;;;;;;4995210;28;20195;-79
2021/11/11 09:30:02;;;;;;;34.30;18.83;;;;;;;;;;4994072;28;20609;-79
2021/11/11 09:32:28;;;;;;;32.97;17.83;;;;;;;;;;4995529;28;20183;-78
2021/11/11 09:34:55;;;;;;;27.73;18.73;;;;;;;;;;4995478;28;20327;-81
2021/11/11 09:37:21;;;;;;;30.88;17.40;;;;;;;;;;4994342;28;20262;-78
2021/11/11 09:39:47;;;;;;;22.85;15.13;;;;;;;;;;4995102;28;20203;-78
2021/11/11 09:42:14;;;;;;;22.25;15.48;;;;;;;;;;4995396;28;20266;-80
2021/11/11 09:44:40;;;;;;;21.55;14.75;;;;;;;;;;4995268;28;20176;-79
2021/11/11 09:47:06;;;;;;;25.60;14.30;;;;;;;;;;4995102;28;20266;-79
2021/11/11 09:49:32;;;;;;;22.95;13.95;;;;;;;;;;4994848;28;20210;-79
2021/11/11 09:51:59;;;;;;;22.55;14.52;;;;;;;;;;4995289;28;20234;-80
2021/11/11 09:59:40;;;;;;;21.20;12.25;;;;;;;;;;4994868;28;20209;-80
2021/11/11 10:02:07;;;;;;;20.85;12.40;;;;;;;;;;4977714;28;20179;-77
2021/11/11 10:04:34;;;;;;;17.48;11.68;;;;;;;;;;4995339;28;20176;-80
2021/11/11 10:07:01;;;;;;;19.07;11.07;;;;;;;;;;4995075;28;20176;-81
2021/11/11 10:09:27;;;;;;;20.40;12.90;;;;;;;;;;4994573;28;20411;-80
2021/11/11 10:12:01;;;;;;;18.63;12.63;;;;;;;;;;4994840;28;20415;-79
2021/11/11 10:14:29;;;;;;;16.60;12.03;;;;;;;;;;4994751;28;20610;-76
2021/11/11 10:16:56;;;;;;;17.53;12.27;;;;;;;;;;4994743;28;20447;-80
2021/11/11 10:19:23;;;;;;;23.73;12.80;;;;;;;;;;4994420;28;20411;-79
2021/11/11 10:22:02;;;;;;;18.63;13.93;;;;;;;;;;4994501;28;20441;-79
2021/11/11 10:24:53;;;;;;;15.60;12.47;;;;;;;;;;4993327;28;20476;-79
2021/11/11 10:30:23;;;;;;;21.97;14.60;;;;;;;;;;4994401;28;20522;-80
2021/11/11 10:32:51;;;;;;;20.13;13.30;;;;;;;;;;4994002;28;20418;-78
2021/11/11 10:35:19;;;;;;;29.13;16.83;;;;;;;;;;4977098;28;20453;-79
2021/11/11 10:38:04;;;;;;;21.50;13.03;;;;;;;;;;4994389;28;20442;-76
2021/11/11 10:40:47;;;;;;;22.37;14.20;;;;;;;;;;4993968;28;20745;-78
2021/11/11 10:43:21;;;;;;;27.40;15.97;;;;;;;;;;4994338;28;20811;-79
2021/11/11 10:45:48;;;;;;;21.80;14.70;;;;;;;;;;4994292;28;20435;-77
2021/11/11 10:48:15;;;;;;;25.03;16.33;;;;;;;;;;4994147;28;20462;-78
2021/11/11 10:50:46;;;;;;;18.60;13.63;;;;;;;;;;4993733;28;20430;-78
2021/11/11 10:53:13;;;;;;;23.83;13.80;;;;;;;;;;4992962;28;20915;-76
2021/11/11 10:55:41;;;;;;;24.57;15.17;;;;;;;;;;4993941;28;20426;-77
2021/11/11 10:58:08;;;;;;;25.23;15.17;;;;;;;;;;4994291;28;20473;-76
2021/11/11 11:00:46;;;;;;;19.37;14.00;;;;;;;;;;4992441;28;20525;-76
2021/11/11 11:03:12;;;;;;;22.23;15.07;;;;;;;;;;4994046;28;20414;-77
2021/11/11 11:05:43;;;;;;;22.23;16.13;;;;;;;;;;4993886;28;20425;-78
2021/11/11 11:08:11;;;;;;;21.90;15.50;;;;;;;;;;4992546;28;20496;-79
2021/11/11 11:10:39;;;;;;;26.30;17.67;;;;;;;;;;4993543;28;20457;-79
2021/11/11 11:13:10;;;;;;;25.77;17.57;;;;;;;;;;4994005;28;20442;-76
2021/11/11 11:15:38;;;;;;;27.67;16.63;;;;;;;;;;4993987;28;20385;-78
2021/11/11 11:18:04;;;;;;;23.93;16.90;;;;;;;;;;4993992;28;20545;-78
2021/11/11 11:20:30;;;;;;;23.40;16.33;;;;;;;;;;4992165;28;20494;-78
2021/11/11 11:23:14;;;;;;;23.67;16.27;;;;;;;;;;4993938;28;20813;-76
2021/11/11 11:25:48;;;;;;;22.90;17.67;;;;;;;;;;4993787;28;20415;-75
2021/11/11 11:28:25;;;;;;;23.83;17.57;;;;;;;;;;4993763;28;21006;-77
2021/11/11 11:30:53;;;;;;;22.70;17.70;;;;;;;;;;4993414;28;20484;-78
2021/11/11 11:33:31;;;;;;;26.50;17.00;;;;;;;;;;4993844;28;20844;-77
2021/11/11 11:35:58;;;;;;;26.27;18.60;;;;;;;;;;4992365;28;20422;-77
2021/11/11 11:38:25;;;;;;;27.20;17.60;;;;;;;;;;4993625;28;20418;-79
2021/11/11 11:40:51;;;;;;;28.07;17.90;;;;;;;;;;4993213;28;20446;-77
2021/11/11 11:43:30;;;;;;;28.43;17.70;;;;;;;;;;4993536;28;20411;-79
2021/11/11 11:46:11;;;;;;;22.97;18.00;;;;;;;;;;4997151;28;20393;-78
2021/11/11 11:48:37;;;;;;;25.87;16.60;;;;;;;;;;4996120;28;21002;-79
2021/11/11 11:51:07;;;;;;;25.40;16.80;;;;;;;;;;4995718;28;20564;-79
2021/11/11 11:53:39;;;;;;;25.70;16.27;;;;;;;;;;4996224;28;20759;-75
2021/11/11 11:56:13;;;;;;;25.07;17.97;;;;;;;;;;4997364;28;20385;-78
2021/11/11 11:58:44;;;;;;;25.90;17.50;;;;;;;;;;4997544;28;20393;-78
2021/11/11 12:01:30;;;;;;;27.40;17.90;;;;;;;;;;4996994;28;20426;-77
2021/11/11 12:04:47;;;;;;;27.23;16.40;;;;;;;;;;4997135;28;20818;-77
2021/11/11 12:07:02;;;;;;;27.00;17.23;;;;;;;;;;4986567;28;20427;-77
2021/11/11 12:39:37;;;;;;;28.93;17.17;;;;;;;;;;4996527;28;20422;-81
2021/11/11 12:42:05;;;;;;;29.23;18.90;;;;;;;;;;4996617;28;20426;-80
2021/11/11 12:44:31;;;;;;;28.60;19.00;;;;;;;;;;4996449;28;20424;-81
2021/11/11 12:46:58;;;;;;;28.03;18.80;;;;;;;;;;4996310;28;20421;-79
2021/11/11 12:49:35;;;;;;;28.03;18.30;;;;;;;;;;4995910;28;20416;-78
2021/11/11 12:52:14;;;;;;;24.30;18.17;;;;;;;;;;4995073;28;20411;-79
2021/11/11 12:54:44;;;;;;;27.03;18.03;;;;;;;;;;4995532;28;20411;-78
2021/11/11 12:57:10;;;;;;;29.37;18.40;;;;;;;;;;4996350;28;20747;-76
2021/11/11 12:59:37;;;;;;;26.67;18.63;;;;;;;;;;4995722;28;20385;-78
2021/11/11 13:02:07;;;;;;;28.03;17.17;;;;;;;;;;4996282;28;20414;-77
2021/11/11 13:04:53;;;;;;;28.27;17.57;;;;;;;;;;4995947;28;20493;-78
2021/11/11 13:07:23;;;;;;;22.77;17.10;;;;;;;;;;4996003;28;20553;-78
2021/11/11 13:09:59;;;;;;;25.00;17.13;;;;;;;;;;4995433;28;20426;-79
2021/11/11 13:12:26;;;;;;;29.80;17.67;;;;;;;;;;4995917;28;20483;-81
2021/11/11 13:14:54;;;;;;;27.40;17.00;;;;;;;;;;4995842;28;20409;-78
2021/11/11 13:17:21;;;;;;;28.97;17.97;;;;;;;;;;4995823;28;20406;-79
2021/11/11 13:19:49;;;;;;;31.27;18.23;;;;;;;;;;4995190;28;20445;-79
2021/11/11 13:22:23;;;;;;;30.03;19.03;;;;;;;;;;4995711;28;20465;-77
2021/11/11 16:01:14;;;;;;;44.13;24.17;;;;;;;;;;4993398;28;20262;-77
2021/11/11 16:04:01;;;;;;;39.42;24.80;;;;;;;;;;4993339;28;20187;-76
2021/11/11 16:19:40;;;;;;;42.95;26.67;;;;;;;;;;4992641;28;20266;-77
2021/11/11 16:20:21;;;;;;;51.70;27.00;;;;;;;;;;4993020;28;20222;-76
2021/11/11 16:28:24;;;;;;;47.13;28.15;;;;;;;;;;4933332;29;20208;-78
2021/11/11 16:30:50;;;;;;;53.42;29.92;;;;;;;;;;4965162;28;20220;-76
2021/11/11 16:33:16;;;;;;;53.13;30.27;;;;;;;;;;4996573;28;20182;-77
2021/11/11 16:35:43;;;;;;;56.60;33.53;;;;;;;;;;4996508;28;20631;-76
2021/11/11 16:38:11;;;;;;;56.03;32.67;;;;;;;;;;4995131;28;20187;-75
2021/11/11 16:40:38;;;;;;;48.88;31.45;;;;;;;;;;4995824;28;20199;-75
2021/11/11 16:43:04;;;;;;;51.60;32.10;;;;;;;;;;4996307;28;20759;-76
2021/11/11 16:45:30;;;;;;;59.95;30.98;;;;;;;;;;4995970;28;20180;-77
2021/11/11 16:47:56;;;;;;;57.20;32.03;;;;;;;;;;4996303;28;20680;-76
2021/11/11 16:50:23;;;;;;;51.75;32.55;;;;;;;;;;4995895;28;20470;-76
2021/11/11 16:52:50;;;;;;;54.38;31.92;;;;;;;;;;4996303;28;20167;-74
2021/11/11 16:55:16;;;;;;;64.57;38.67;;;;;;;;;;4995063;28;20178;-76
2021/11/11 16:57:42;;;;;;;65.18;40.38;;;;;;;;;;4996234;28;20182;-77
2021/11/11 17:00:11;;;;;;;57.70;35.10;;;;;;;;;;4995828;28;20258;-78
2021/11/11 17:02:37;;;;;;;52.92;32.00;;;;;;;;;;4996363;28;20515;-75
2021/11/11 17:05:03;;;;;;;50.45;30.88;;;;;;;;;;4996163;28;20640;-76
2021/11/11 17:07:29;;;;;;;50.55;31.90;;;;;;;;;;4996000;28;20198;-77
2021/11/11 17:09:56;;;;;;;49.50;30.17;;;;;;;;;;4995554;28;20207;-78
2021/11/11 17:12:22;;;;;;;45.50;28.23;;;;;;;;;;4995881;28;20406;-77
2021/11/11 17:14:54;;;;;;;47.30;29.60;;;;;;;;;;4995829;28;20207;-78
2021/11/11 17:17:20;;;;;;;49.55;31.23;;;;;;;;;;4996221;28;20517;-77
2021/11/11 17:19:52;;;;;;;52.22;29.05;;;;;;;;;;4993952;28;20203;-76
2021/11/11 17:22:20;;;;;;;51.13;30.27;;;;;;;;;;4995757;28;20528;-78
2021/11/11 17:24:49;;;;;;;52.20;30.50;;;;;;;;;;4995824;28;20190;-78
2021/11/11 17:27:30;;;;;;;52.08;31.42;;;;;;;;;;4995571;28;20262;-77
2021/11/11 17:29:56;;;;;;;49.17;30.23;;;;;;;;;;4995473;28;20203;-76
2021/11/11 17:32:23;;;;;;;58.10;32.50;;;;;;;;;;4993877;28;20184;-76
2021/11/11 17:34:49;;;;;;;62.03;32.72;;;;;;;;;;4995432;28;20178;-77
2021/11/11 17:37:15;;;;;;;54.88;32.20;;;;;;;;;;4995655;28;20669;-78
2021/11/11 17:39:41;;;;;;;52.30;32.70;;;;;;;;;;4994077;28;20200;-78
2021/11/11 17:42:07;;;;;;;59.88;32.35;;;;;;;;;;4995433;28;20258;-77
2021/11/11 17:44:37;;;;;;;53.42;31.48;;;;;;;;;;4995217;28;20596;-78
2021/11/11 17:47:06;;;;;;;65.32;34.28;;;;;;;;;;4995485;28;20202;-78
2021/11/11 17:49:43;;;;;;;50.90;30.52;;;;;;;;;;4995020;28;20195;-76
2021/11/11 17:52:27;;;;;;;50.28;28.15;;;;;;;;;;4995313;28;20198;-78
2021/11/11 17:54:56;;;;;;;52.42;30.95;;;;;;;;;;4995231;28;20211;-76
2021/11/11 17:57:23;;;;;;;46.38;28.70;;;;;;;;;;4995056;28;20234;-77
2021/11/11 17:59:49;;;;;;;51.25;28.75;;;;;;;;;;4994595;28;20194;-76
2021/11/11 18:02:19;;;;;;;49.03;29.63;;;;;;;;;;4993758;28;20183;-79
2021/11/11 18:04:51;;;;;;;54.13;30.95;;;;;;;;;;4994806;28;20606;-78
2021/11/11 18:07:32;;;;;;;48.00;28.25;;;;;;;;;;4995259;28;20163;-79
2021/11/11 18:10:01;;;;;;;49.70;28.08;;;;;;;;;;4993535;28;20240;-79
2021/11/11 18:12:36;;;;;;;47.72;26.77;;;;;;;;;;4994810;28;20201;-77
2021/11/11 18:15:08;;;;;;;55.83;31.92;;;;;;;;;;4994729;28;20228;-77
2021/11/11 18:17:34;;;;;;;57.00;33.00;;;;;;;;;;4994668;28;20179;-77
2021/11/11 18:20:00;;;;;;;61.13;32.85;;;;;;;;;;4992581;28;20326;-77